sensor_id;sensor_type;location;lat;lon;timestamp;pressure;altitude;pressure_sealevel;temperature;humidity
55550;BME280;41397;49.972;18.944;2023-10-13T00:01:44;101941.23;;;20.80;72.65
55550;BME280;41397;49.972;18.944;2023-10-13T00:04:47;101940.53;;;20.78;72.76
55550;BME280;41397;49.972;18.944;2023-10-13T00:08:00;101933.38;;;20.75;72.68
55550;BME280;41397;49.972;18.944;2023-10-13T00:11:01;101930.78;;;20.74;72.69
55550;BME280;41397;49.972;18.944;2023-10-13T00:14:05;101921.55;;;20.73;72.51
55550;BME280;41397;49.972;18.944;2023-10-13T00:17:10;101925.38;;;20.72;72.51
55550;BME280;41397;49.972;18.944;2023-10-13T00:20:21;101932.66;;;20.73;72.56
55550;BME280;41397;49.972;18.944;2023-10-13T00:23:36;101930.93;;;20.72;72.39
55550;BME280;41397;49.972;18.944;2023-10-13T00:26:41;101931.13;;;20.71;72.57
55550;BME280;41397;49.972;18.944;2023-10-13T00:29:44;101921.88;;;20.70;72.54
55550;BME280;41397;49.972;18.944;2023-10-13T00:32:48;101909.18;;;20.68;72.52
55550;BME280;41397;49.972;18.944;2023-10-13T00:35:56;101910.23;;;20.67;72.61
55550;BME280;41397;49.972;18.944;2023-10-13T00:39:02;101920.63;;;20.65;72.58
55550;BME280;41397;49.972;18.944;2023-10-13T00:42:07;101920.97;;;20.61;72.51
55550;BME280;41397;49.972;18.944;2023-10-13T00:45:26;101914.70;;;20.59;72.47
55550;BME280;41397;49.972;18.944;2023-10-13T00:48:32;101912.95;;;20.58;72.33
55550;BME280;41397;49.972;18.944;2023-10-13T00:51:35;101915.73;;;20.58;72.34
55550;BME280;41397;49.972;18.944;2023-10-13T00:54:37;101909.13;;;20.59;72.27
55550;BME280;41397;49.972;18.944;2023-10-13T00:57:40;101907.40;;;20.58;72.24
55550;BME280;41397;49.972;18.944;2023-10-13T01:00:42;101905.67;;;20.57;72.23
55550;BME280;41397;49.972;18.944;2023-10-13T01:03:54;101906.68;;;20.56;72.31
55550;BME280;41397;49.972;18.944;2023-10-13T01:06:56;101899.55;;;20.54;72.23
55550;BME280;41397;49.972;18.944;2023-10-13T01:09:57;101894.13;;;20.52;72.26
55550;BME280;41397;49.972;18.944;2023-10-13T01:12:59;101896.91;;;20.52;72.13
55550;BME280;41397;49.972;18.944;2023-10-13T01:16:03;101895.48;;;20.48;72.22
55550;BME280;41397;49.972;18.944;2023-10-13T01:19:07;101894.61;;;20.48;72.04
55550;BME280;41397;49.972;18.944;2023-10-13T01:22:12;101896.67;;;20.46;72.03
55550;BME280;41397;49.972;18.944;2023-10-13T01:25:17;101899.07;;;20.40;72.16
55550;BME280;41397;49.972;18.944;2023-10-13T01:28:20;101898.20;;;20.40;72.09
55550;BME280;41397;49.972;18.944;2023-10-13T01:31:23;101903.08;;;20.38;72.10
55550;BME280;41397;49.972;18.944;2023-10-13T01:34:35;101896.80;;;20.36;72.07
55550;BME280;41397;49.972;18.944;2023-10-13T01:37:38;101894.17;;;20.34;72.00
55550;BME280;41397;49.972;18.944;2023-10-13T01:40:43;101898.14;;;20.32;72.11
55550;BME280;41397;49.972;18.944;2023-10-13T01:43:44;101908.38;;;20.31;71.85
55550;BME280;41397;49.972;18.944;2023-10-13T01:46:46;101893.79;;;20.29;71.99
55550;BME280;41397;49.972;18.944;2023-10-13T01:49:49;101891.01;;;20.29;71.91
55550;BME280;41397;49.972;18.944;2023-10-13T01:52:52;101887.54;;;20.27;72.15
55550;BME280;41397;49.972;18.944;2023-10-13T01:56:10;101894.11;;;20.26;72.20
55550;BME280;41397;49.972;18.944;2023-10-13T01:59:11;101894.11;;;20.26;72.37
55550;BME280;41397;49.972;18.944;2023-10-13T02:02:13;101898.80;;;20.26;72.43
55550;BME280;41397;49.972;18.944;2023-10-13T02:05:16;101898.95;;;20.24;72.61
55550;BME280;41397;49.972;18.944;2023-10-13T02:08:20;101901.19;;;20.21;72.89
55550;BME280;41397;49.972;18.944;2023-10-13T02:11:25;101906.73;;;20.21;72.85
55550;BME280;41397;49.972;18.944;2023-10-13T02:14:27;101905.02;;;20.20;73.05
55550;BME280;41397;49.972;18.944;2023-10-13T02:17:28;101899.45;;;20.20;73.38
55550;BME280;41397;49.972;18.944;2023-10-13T02:20:35;101891.13;;;20.20;73.40
55550;BME280;41397;49.972;18.944;2023-10-13T02:23:45;101884.84;;;20.17;73.49
55550;BME280;41397;49.972;18.944;2023-10-13T02:27:02;101894.23;;;20.16;73.63
55550;BME280;41397;49.972;18.944;2023-10-13T02:30:11;101883.80;;;20.18;73.71
55550;BME280;41397;49.972;18.944;2023-10-13T02:33:16;101895.97;;;20.17;73.72
55550;BME280;41397;49.972;18.944;2023-10-13T02:36:22;101897.88;;;20.17;73.64
55550;BME280;41397;49.972;18.944;2023-10-13T02:39:34;101890.41;;;20.17;73.84
55550;BME280;41397;49.972;18.944;2023-10-13T02:42:37;101899.61;;;20.18;74.11
55550;BME280;41397;49.972;18.944;2023-10-13T02:45:40;101902.05;;;20.21;73.75
55550;BME280;41397;49.972;18.944;2023-10-13T02:48:44;101896.88;;;20.26;73.68
55550;BME280;41397;49.972;18.944;2023-10-13T02:51:55;101907.29;;;20.24;73.84
55550;BME280;41397;49.972;18.944;2023-10-13T02:54:59;101919.30;;;20.25;74.05
55550;BME280;41397;49.972;18.944;2023-10-13T02:58:01;101910.96;;;20.25;74.14
55550;BME280;41397;49.972;18.944;2023-10-13T03:01:07;101921.89;;;20.26;74.30
55550;BME280;41397;49.972;18.944;2023-10-13T03:04:18;101919.30;;;20.25;74.29
55550;BME280;41397;49.972;18.944;2023-10-13T03:07:27;101920.49;;;20.22;74.47
55550;BME280;41397;49.972;18.944;2023-10-13T03:10:31;101927.77;;;20.23;74.55
55550;BME280;41397;49.972;18.944;2023-10-13T03:13:33;101925.33;;;20.20;74.84
55550;BME280;41397;49.972;18.944;2023-10-13T03:16:34;101916.84;;;20.22;74.92
55550;BME280;41397;49.972;18.944;2023-10-13T03:19:37;101919.05;;;20.18;75.08
55550;BME280;41397;49.972;18.944;2023-10-13T03:22:40;101916.60;;;20.15;75.51
55550;BME280;41397;49.972;18.944;2023-10-13T03:25:45;101911.04;;;20.15;75.44
55550;BME280;41397;49.972;18.944;2023-10-13T03:28:50;101916.45;;;20.16;75.09
55550;BME280;41397;49.972;18.944;2023-10-13T03:31:58;101909.86;;;20.17;75.18
55550;BME280;41397;49.972;18.944;2023-10-13T03:35:08;101910.72;;;20.18;75.10
55550;BME280;41397;49.972;18.944;2023-10-13T03:38:18;101913.68;;;20.16;75.23
55550;BME280;41397;49.972;18.944;2023-10-13T03:41:20;101909.30;;;20.14;75.15
55550;BME280;41397;49.972;18.944;2023-10-13T03:44:31;101908.27;;;20.15;75.43
55550;BME280;41397;49.972;18.944;2023-10-13T03:47:33;101901.52;;;20.17;75.35
55550;BME280;41397;49.972;18.944;2023-10-13T03:50:40;101894.23;;;20.16;75.42
55550;BME280;41397;49.972;18.944;2023-10-13T03:53:48;101911.04;;;20.15;75.61
55550;BME280;41397;49.972;18.944;2023-10-13T03:56:57;101905.49;;;20.15;75.62
55550;BME280;41397;49.972;18.944;2023-10-13T04:00:04;101895.57;;;20.12;75.86
55550;BME280;41397;49.972;18.944;2023-10-13T04:03:17;101894.16;;;20.08;75.59
55550;BME280;41397;49.972;18.944;2023-10-13T04:06:20;101890.34;;;20.09;75.62
55550;BME280;41397;49.972;18.944;2023-10-13T04:09:32;101891.93;;;20.12;75.61
55550;BME280;41397;49.972;18.944;2023-10-13T04:12:45;101884.46;;;20.12;75.46
55550;BME280;41397;49.972;18.944;2023-10-13T04:16:00;101890.88;;;20.13;75.44
55550;BME280;41397;49.972;18.944;2023-10-13T04:19:14;101881.68;;;20.12;75.47
55550;BME280;41397;49.972;18.944;2023-10-13T04:22:26;101893.66;;;20.13;75.68
55550;BME280;41397;49.972;18.944;2023-10-13T04:25:40;101885.34;;;20.13;75.64
55550;BME280;41397;49.972;18.944;2023-10-13T04:28:54;101884.46;;;20.12;75.58
55550;BME280;41397;49.972;18.944;2023-10-13T04:32:00;101882.55;;;20.13;75.51
55550;BME280;41397;49.972;18.944;2023-10-13T04:35:08;101883.13;;;20.16;75.36
55550;BME280;41397;49.972;18.944;2023-10-13T04:38:19;101881.37;;;20.15;75.63
55550;BME280;41397;49.972;18.944;2023-10-13T04:41:30;101873.90;;;20.16;75.36
55550;BME280;41397;49.972;18.944;2023-10-13T04:44:44;101880.34;;;20.16;75.33
55550;BME280;41397;49.972;18.944;2023-10-13T04:49:30;101891.45;;;20.16;75.44
55550;BME280;41397;49.972;18.944;2023-10-13T04:52:48;101892.31;;;20.17;75.55
55550;BME280;41397;49.972;18.944;2023-10-13T04:56:03;101885.90;;;20.16;75.62
55550;BME280;41397;49.972;18.944;2023-10-13T04:59:15;101895.82;;;20.19;75.60
55550;BME280;41397;49.972;18.944;2023-10-13T05:02:23;101893.90;;;20.20;75.70
55550;BME280;41397;49.972;18.944;2023-10-13T05:05:37;101898.42;;;20.21;75.53
55550;BME280;41397;49.972;18.944;2023-10-13T05:08:50;101908.52;;;20.22;75.55
55550;BME280;41397;49.972;18.944;2023-10-13T05:12:04;101906.93;;;20.19;75.84
55550;BME280;41397;49.972;18.944;2023-10-13T05:15:18;101919.23;;;20.16;75.80
55550;BME280;41397;49.972;18.944;2023-10-13T05:18:35;101928.10;;;20.20;75.75
55550;BME280;41397;49.972;18.944;2023-10-13T05:21:53;101931.75;;;20.21;75.67
55550;BME280;41397;49.972;18.944;2023-10-13T05:25:12;101931.60;;;20.22;75.74
55550;BME280;41397;49.972;18.944;2023-10-13T05:28:30;101933.66;;;20.20;75.78
55550;BME280;41397;49.972;18.944;2023-10-13T05:31:49;101947.40;;;20.22;75.80
55550;BME280;41397;49.972;18.944;2023-10-13T05:35:07;101937.30;;;20.21;76.07
55550;BME280;41397;49.972;18.944;2023-10-13T05:38:26;101954.84;;;20.21;76.10
55550;BME280;41397;49.972;18.944;2023-10-13T05:41:44;101956.59;;;20.22;76.08
55550;BME280;41397;49.972;18.944;2023-10-13T05:45:03;101955.55;;;20.23;75.97
55550;BME280;41397;49.972;18.944;2023-10-13T05:48:21;101962.84;;;20.24;75.97
55550;BME280;41397;49.972;18.944;2023-10-13T05:51:33;101963.41;;;20.28;76.01
55550;BME280;41397;49.972;18.944;2023-10-13T05:54:49;101962.55;;;20.27;76.19
55550;BME280;41397;49.972;18.944;2023-10-13T05:58:02;101967.93;;;20.29;76.26
55550;BME280;41397;49.972;18.944;2023-10-13T06:01:16;101970.88;;;20.27;76.22
55550;BME280;41397;49.972;18.944;2023-10-13T06:04:29;101979.91;;;20.29;76.07
55550;BME280;41397;49.972;18.944;2023-10-13T06:07:42;101979.51;;;20.24;76.27
55550;BME280;41397;49.972;18.944;2023-10-13T06:11:02;101975.85;;;20.24;76.20
55550;BME280;41397;49.972;18.944;2023-10-13T06:14:16;101976.58;;;20.26;76.08
55550;BME280;41397;49.972;18.944;2023-10-13T06:17:29;101979.03;;;20.29;75.80
55550;BME280;41397;49.972;18.944;2023-10-13T06:20:42;101980.80;;;20.30;76.01
55550;BME280;41397;49.972;18.944;2023-10-13T06:23:56;101987.23;;;20.30;75.78
55550;BME280;41397;49.972;18.944;2023-10-13T06:27:13;101987.05;;;20.32;75.60
55550;BME280;41397;49.972;18.944;2023-10-13T06:30:31;101990.70;;;20.32;75.60
55550;BME280;41397;49.972;18.944;2023-10-13T06:33:35;101996.82;;;20.36;75.62
55550;BME280;41397;49.972;18.944;2023-10-13T06:36:36;101991.09;;;20.37;75.41
55550;BME280;41397;49.972;18.944;2023-10-13T06:39:41;101989.89;;;20.40;75.39
55550;BME280;41397;49.972;18.944;2023-10-13T06:42:42;101999.09;;;20.40;75.46
55550;BME280;41397;49.972;18.944;2023-10-13T06:45:44;101999.34;;;20.47;75.07
55550;BME280;41397;49.972;18.944;2023-10-13T06:48:59;101996.23;;;20.50;74.97
55550;BME280;41397;49.972;18.944;2023-10-13T06:52:03;101998.87;;;20.52;74.91
55550;BME280;41397;49.972;18.944;2023-10-13T06:55:07;102001.35;;;20.55;75.13
55550;BME280;41397;49.972;18.944;2023-10-13T06:58:16;102000.16;;;20.57;74.80
55550;BME280;41397;49.972;18.944;2023-10-13T07:01:23;102007.13;;;20.61;74.88
55550;BME280;41397;49.972;18.944;2023-10-13T07:04:26;101996.54;;;20.65;74.56
55550;BME280;41397;49.972;18.944;2023-10-13T07:07:27;101995.05;;;20.71;74.63
55550;BME280;41397;49.972;18.944;2023-10-13T07:10:29;102003.21;;;20.72;74.70
55550;BME280;41397;49.972;18.944;2023-10-13T07:13:32;102005.66;;;20.75;74.58
55550;BME280;41397;49.972;18.944;2023-10-13T07:16:54;102009.01;;;20.79;74.50
55550;BME280;41397;49.972;18.944;2023-10-13T07:19:52;101995.80;;;20.81;74.55
55550;BME280;41397;49.972;18.944;2023-10-13T07:23:02;101998.96;;;20.86;74.55
55550;BME280;41397;49.972;18.944;2023-10-13T07:26:09;102001.41;;;20.89;74.44
55550;BME280;41397;49.972;18.944;2023-10-13T07:29:15;102000.93;;;20.94;74.31
55550;BME280;41397;49.972;18.944;2023-10-13T07:32:17;102005.82;;;21.00;74.11
55550;BME280;41397;49.972;18.944;2023-10-13T07:35:25;102004.81;;;21.01;74.08
55550;BME280;41397;49.972;18.944;2023-10-13T07:38:31;101998.05;;;21.03;73.87
55550;BME280;41397;49.972;18.944;2023-10-13T07:41:38;102005.88;;;21.08;73.55
55550;BME280;41397;49.972;18.944;2023-10-13T07:44:42;102004.67;;;21.11;73.92
55550;BME280;41397;49.972;18.944;2023-10-13T07:47:46;101998.62;;;21.15;73.82
55550;BME280;41397;49.972;18.944;2023-10-13T07:50:59;101997.23;;;21.19;73.56
55550;BME280;41397;49.972;18.944;2023-10-13T07:54:16;101992.92;;;21.25;73.36
55550;BME280;41397;49.972;18.944;2023-10-13T07:57:25;102001.30;;;21.33;73.34
55550;BME280;41397;49.972;18.944;2023-10-13T08:00:30;101994.94;;;21.41;73.12
55550;BME280;41397;49.972;18.944;2023-10-13T08:03:46;101985.91;;;21.47;72.81
55550;BME280;41397;49.972;18.944;2023-10-13T08:06:47;101990.49;;;21.56;72.14
55550;BME280;41397;49.972;18.944;2023-10-13T08:09:49;101996.61;;;21.68;72.22
55550;BME280;41397;49.972;18.944;2023-10-13T08:12:52;101984.98;;;21.72;71.86
55550;BME280;41397;49.972;18.944;2023-10-13T08:15:57;102002.72;;;21.80;71.46
55550;BME280;41397;49.972;18.944;2023-10-13T08:19:08;102001.70;;;21.81;71.19
55550;BME280;41397;49.972;18.944;2023-10-13T08:22:12;102001.51;;;21.82;71.29
55550;BME280;41397;49.972;18.944;2023-10-13T08:25:30;101998.23;;;21.87;71.02
55550;BME280;41397;49.972;18.944;2023-10-13T08:28:48;101997.88;;;21.90;71.03
55550;BME280;41397;49.972;18.944;2023-10-13T08:31:55;101996.66;;;21.92;71.10
55550;BME280;41397;49.972;18.944;2023-10-13T08:35:10;101998.96;;;21.97;71.25
55550;BME280;41397;49.972;18.944;2023-10-13T08:38:22;101990.96;;;22.02;71.12
55550;BME280;41397;49.972;18.944;2023-10-13T08:41:36;102001.58;;;22.15;71.69
55550;BME280;41397;49.972;18.944;2023-10-13T08:44:48;101990.31;;;22.25;70.90
55550;BME280;41397;49.972;18.944;2023-10-13T08:47:58;101996.25;;;22.38;70.43
55550;BME280;41397;49.972;18.944;2023-10-13T08:51:13;101989.80;;;22.54;69.64
55550;BME280;41397;49.972;18.944;2023-10-13T08:54:25;101979.30;;;22.72;69.08
55550;BME280;41397;49.972;18.944;2023-10-13T08:57:38;101979.12;;;22.98;69.25
55550;BME280;41397;49.972;18.944;2023-10-13T09:00:47;101976.08;;;23.24;68.09
55550;BME280;41397;49.972;18.944;2023-10-13T09:04:01;101978.94;;;23.47;67.06
55550;BME280;41397;49.972;18.944;2023-10-13T09:07:15;101988.09;;;23.73;66.77
55550;BME280;41397;49.972;18.944;2023-10-13T09:10:22;101969.98;;;23.91;66.85
55550;BME280;41397;49.972;18.944;2023-10-13T09:13:36;101976.84;;;24.12;66.59
55550;BME280;41397;49.972;18.944;2023-10-13T09:16:47;101959.05;;;24.28;66.78
55550;BME280;41397;49.972;18.944;2023-10-13T09:20:03;101966.64;;;24.42;65.31
55550;BME280;41397;49.972;18.944;2023-10-13T09:23:16;101974.09;;;24.50;64.82
55550;BME280;41397;49.972;18.944;2023-10-13T09:26:35;101974.91;;;24.58;64.42
55550;BME280;41397;49.972;18.944;2023-10-13T09:29:37;101967.98;;;24.69;63.26
55550;BME280;41397;49.972;18.944;2023-10-13T09:32:42;101971.56;;;24.78;63.76
55550;BME280;41397;49.972;18.944;2023-10-13T09:35:46;101971.48;;;24.86;62.01
55550;BME280;41397;49.972;18.944;2023-10-13T09:38:51;101958.17;;;24.88;61.94
55550;BME280;41397;49.972;18.944;2023-10-13T09:42:05;101965.11;;;24.92;62.29
55550;BME280;41397;49.972;18.944;2023-10-13T09:45:15;101959.13;;;24.95;61.84
55550;BME280;41397;49.972;18.944;2023-10-13T09:48:22;101966.39;;;25.05;62.29
55550;BME280;41397;49.972;18.944;2023-10-13T09:51:28;101966.74;;;25.01;61.30
55550;BME280;41397;49.972;18.944;2023-10-13T09:54:38;101966.27;;;24.98;61.09
55550;BME280;41397;49.972;18.944;2023-10-13T09:58:00;101963.77;;;24.88;60.92
55550;BME280;41397;49.972;18.944;2023-10-13T10:01:11;101965.76;;;24.79;61.23
55550;BME280;41397;49.972;18.944;2023-10-13T10:04:27;101978.80;;;24.72;61.11
55550;BME280;41397;49.972;18.944;2023-10-13T10:07:30;101973.37;;;24.71;61.14
55550;BME280;41397;49.972;18.944;2023-10-13T10:14:08;101963.26;;;24.70;61.33
55550;BME280;41397;49.972;18.944;2023-10-13T10:17:15;101956.41;;;24.72;61.44
55550;BME280;41397;49.972;18.944;2023-10-13T10:20:16;101953.92;;;24.77;61.61
55550;BME280;41397;49.972;18.944;2023-10-13T10:23:32;101949.76;;;24.73;60.53
55550;BME280;41397;49.972;18.944;2023-10-13T10:29:53;101939.25;;;24.75;59.80
55550;BME280;41397;49.972;18.944;2023-10-13T10:32:56;101938.77;;;24.72;60.07
55550;BME280;41397;49.972;18.944;2023-10-13T10:36:05;101940.02;;;24.69;60.44
55550;BME280;41397;49.972;18.944;2023-10-13T10:39:07;101922.07;;;24.64;60.10
55550;BME280;41397;49.972;18.944;2023-10-13T10:42:13;101919.45;;;24.62;59.88
55550;BME280;41397;49.972;18.944;2023-10-13T10:45:29;101913.38;;;24.58;60.01
55550;BME280;41397;49.972;18.944;2023-10-13T10:48:34;101914.11;;;24.52;60.70
55550;BME280;41397;49.972;18.944;2023-10-13T10:51:45;101905.73;;;24.52;60.64
55550;BME280;41397;49.972;18.944;2023-10-13T10:54:59;101906.63;;;24.53;61.30
55550;BME280;41397;49.972;18.944;2023-10-13T10:58:00;101912.57;;;24.50;60.92
55550;BME280;41397;49.972;18.944;2023-10-13T11:01:06;101901.38;;;24.50;61.21
55550;BME280;41397;49.972;18.944;2023-10-13T11:04:20;101908.73;;;24.51;61.76
55550;BME280;41397;49.972;18.944;2023-10-13T11:07:34;101896.70;;;24.50;61.63
55550;BME280;41397;49.972;18.944;2023-10-13T11:13:48;101893.59;;;24.45;60.89
55550;BME280;41397;49.972;18.944;2023-10-13T11:16:57;101890.96;;;24.44;61.27
55550;BME280;41397;49.972;18.944;2023-10-13T11:20:13;101902.15;;;24.44;61.37
55550;BME280;41397;49.972;18.944;2023-10-13T11:23:18;101911.23;;;24.46;62.27
55550;BME280;41397;49.972;18.944;2023-10-13T11:26:35;101902.84;;;24.46;61.78
55550;BME280;41397;49.972;18.944;2023-10-13T11:29:45;101893.59;;;24.45;61.89
55550;BME280;41397;49.972;18.944;2023-10-13T11:33:02;101886.80;;;24.40;62.06
55550;BME280;41397;49.972;18.944;2023-10-13T11:36:07;101888.22;;;24.35;62.44
55550;BME280;41397;49.972;18.944;2023-10-13T11:39:19;101888.22;;;24.35;62.32
55550;BME280;41397;49.972;18.944;2023-10-13T11:42:30;101887.45;;;24.42;62.49
55550;BME280;41397;49.972;18.944;2023-10-13T11:45:36;101879.60;;;24.45;62.13
55550;BME280;41397;49.972;18.944;2023-10-13T11:48:39;101877.77;;;24.52;61.87
55550;BME280;41397;49.972;18.944;2023-10-13T11:51:49;101878.65;;;24.53;62.03
55550;BME280;41397;49.972;18.944;2023-10-13T11:54:51;101882.10;;;24.55;62.09
55550;BME280;41397;49.972;18.944;2023-10-13T11:57:53;101878.92;;;24.58;61.98
55550;BME280;41397;49.972;18.944;2023-10-13T12:00:55;101877.20;;;24.57;61.66
55550;BME280;41397;49.972;18.944;2023-10-13T12:04:07;101857.62;;;24.57;61.44
55550;BME280;41397;49.972;18.944;2023-10-13T12:07:21;101855.04;;;24.55;61.69
55550;BME280;41397;49.972;18.944;2023-10-13T12:10:32;101863.42;;;24.55;61.68
55550;BME280;41397;49.972;18.944;2023-10-13T12:13:34;101857.62;;;24.57;61.71
55550;BME280;41397;49.972;18.944;2023-10-13T12:16:39;101860.63;;;24.55;61.68
55550;BME280;41397;49.972;18.944;2023-10-13T12:19:41;101854.65;;;24.58;61.76
55550;BME280;41397;49.972;18.944;2023-10-13T12:22:43;101856.84;;;24.63;61.75
55550;BME280;41397;49.972;18.944;2023-10-13T12:25:55;101841.82;;;24.64;61.08
55550;BME280;41397;49.972;18.944;2023-10-13T12:29:01;101841.82;;;24.64;61.35
55550;BME280;41397;49.972;18.944;2023-10-13T12:32:14;101836.23;;;24.64;61.41
55550;BME280;41397;49.972;18.944;2023-10-13T12:35:25;101853.66;;;24.66;61.60
55550;BME280;41397;49.972;18.944;2023-10-13T12:38:42;101849.14;;;24.65;61.71
55550;BME280;41397;49.972;18.944;2023-10-13T12:41:55;101848.95;;;24.67;61.61
55550;BME280;41397;49.972;18.944;2023-10-13T12:45:10;101860.79;;;24.69;61.72
55550;BME280;41397;49.972;18.944;2023-10-13T12:48:25;101852.79;;;24.66;61.47
55550;BME280;41397;49.972;18.944;2023-10-13T12:51:38;101843.55;;;24.65;61.66
55550;BME280;41397;49.972;18.944;2023-10-13T12:54:50;101834.46;;;24.63;61.80
55550;BME280;41397;49.972;18.944;2023-10-13T12:58:02;101836.61;;;24.61;61.71
55550;BME280;41397;49.972;18.944;2023-10-13T13:01:05;101830.12;;;24.61;62.07
55550;BME280;41397;49.972;18.944;2023-10-13T13:04:10;101818.07;;;24.60;62.13
55550;BME280;41397;49.972;18.944;2023-10-13T13:07:23;101813.95;;;24.56;62.29
55550;BME280;41397;49.972;18.944;2023-10-13T13:10:37;101821.66;;;24.54;62.33
55550;BME280;41397;49.972;18.944;2023-10-13T13:13:39;101817.70;;;24.48;62.21
55550;BME280;41397;49.972;18.944;2023-10-13T13:16:41;101810.91;;;24.43;62.43
55550;BME280;41397;49.972;18.944;2023-10-13T13:19:47;101811.30;;;24.40;62.49
55550;BME280;41397;49.972;18.944;2023-10-13T13:22:49;101806.09;;;24.36;62.34
55550;BME280;41397;49.972;18.944;2023-10-13T13:25:50;101815.53;;;24.35;62.35
55550;BME280;41397;49.972;18.944;2023-10-13T13:28:52;101810.53;;;24.31;62.64
55550;BME280;41397;49.972;18.944;2023-10-13T13:31:53;101802.33;;;24.29;62.39
55550;BME280;41397;49.972;18.944;2023-10-13T13:34:56;101796.73;;;24.29;62.59
55550;BME280;41397;49.972;18.944;2023-10-13T13:38:06;101801.08;;;24.32;62.70
55550;BME280;41397;49.972;18.944;2023-10-13T13:41:14;101790.28;;;24.29;62.65
55550;BME280;41397;49.972;18.944;2023-10-13T13:44:18;101791.32;;;24.28;62.71
55550;BME280;41397;49.972;18.944;2023-10-13T13:47:20;101792.40;;;24.27;62.62
55550;BME280;41397;49.972;18.944;2023-10-13T13:50:22;101791.71;;;24.25;62.60
55550;BME280;41397;49.972;18.944;2023-10-13T13:53:31;101792.78;;;24.24;62.55
55550;BME280;41397;49.972;18.944;2023-10-13T13:56:43;101799.62;;;24.21;62.63
55550;BME280;41397;49.972;18.944;2023-10-13T13:59:45;101789.69;;;24.19;62.38
55550;BME280;41397;49.972;18.944;2023-10-13T14:02:46;101796.52;;;24.16;62.61
55550;BME280;41397;49.972;18.944;2023-10-13T14:05:51;101801.25;;;24.15;62.46
55550;BME280;41397;49.972;18.944;2023-10-13T14:08:54;101794.11;;;24.13;62.56
55550;BME280;41397;49.972;18.944;2023-10-13T14:11:56;101799.70;;;24.13;62.69
55550;BME280;41397;49.972;18.944;2023-10-13T14:15:10;101795.19;;;24.12;62.82
55550;BME280;41397;49.972;18.944;2023-10-13T14:18:23;101793.64;;;24.09;62.94
55550;BME280;41397;49.972;18.944;2023-10-13T14:21:31;101792.09;;;24.07;63.14
55550;BME280;41397;49.972;18.944;2023-10-13T14:24:35;101795.27;;;24.04;63.37
55550;BME280;41397;49.972;18.944;2023-10-13T14:27:46;101793.03;;;23.99;63.39
55550;BME280;41397;49.972;18.944;2023-10-13T14:30:48;101785.52;;;24.00;63.56
55550;BME280;41397;49.972;18.944;2023-10-13T14:33:49;101786.76;;;23.97;63.79
55550;BME280;41397;49.972;18.944;2023-10-13T14:36:52;101785.90;;;23.97;63.79
55550;BME280;41397;49.972;18.944;2023-10-13T14:39:56;101782.80;;;23.91;63.97
55550;BME280;41397;49.972;18.944;2023-10-13T14:43:01;101779.32;;;23.89;64.18
55550;BME280;41397;49.972;18.944;2023-10-13T14:46:02;101777.59;;;23.88;64.36
55550;BME280;41397;49.972;18.944;2023-10-13T14:49:09;101775.66;;;23.89;64.32
55550;BME280;41397;49.972;18.944;2023-10-13T14:52:10;101770.46;;;23.86;64.33
55550;BME280;41397;49.972;18.944;2023-10-13T14:55:12;101772.39;;;23.85;64.57
55550;BME280;41397;49.972;18.944;2023-10-13T14:58:22;101775.36;;;23.84;64.27
55550;BME280;41397;49.972;18.944;2023-10-13T15:01:27;101764.77;;;23.79;64.53
55550;BME280;41397;49.972;18.944;2023-10-13T15:04:29;101765.12;;;23.76;64.73
55550;BME280;41397;49.972;18.944;2023-10-13T15:07:33;101768.52;;;23.72;64.99
55550;BME280;41397;49.972;18.944;2023-10-13T15:10:35;101761.72;;;23.66;65.06
55550;BME280;41397;49.972;18.944;2023-10-13T15:13:38;101759.30;;;23.63;65.34
55550;BME280;41397;49.972;18.944;2023-10-13T15:16:40;101761.41;;;23.61;65.37
55550;BME280;41397;49.972;18.944;2023-10-13T15:19:43;101747.14;;;23.56;65.81
55550;BME280;41397;49.972;18.944;2023-10-13T15:22:46;101746.45;;;23.54;65.86
55550;BME280;41397;49.972;18.944;2023-10-13T15:25:50;101748.93;;;23.48;65.92
55550;BME280;41397;49.972;18.944;2023-10-13T15:28:52;101731.88;;;23.43;66.10
55550;BME280;41397;49.972;18.944;2023-10-13T15:31:56;101728.80;;;23.38;66.06
55550;BME280;41397;49.972;18.944;2023-10-13T15:35:11;101724.46;;;23.36;65.66
55550;BME280;41397;49.972;18.944;2023-10-13T15:38:16;101729.52;;;23.32;65.64
55550;BME280;41397;49.972;18.944;2023-10-13T15:41:23;101724.53;;;23.28;65.68
55550;BME280;41397;49.972;18.944;2023-10-13T15:44:29;101721.59;;;23.21;65.61
55550;BME280;41397;49.972;18.944;2023-10-13T15:47:31;101728.04;;;23.21;65.50
55550;BME280;41397;49.972;18.944;2023-10-13T15:50:37;101720.90;;;23.19;65.46
55550;BME280;41397;49.972;18.944;2023-10-13T15:53:42;101729.48;;;23.17;65.34
55550;BME280;41397;49.972;18.944;2023-10-13T15:56:49;101725.13;;;23.15;65.48
55550;BME280;41397;49.972;18.944;2023-10-13T15:59:55;101726.37;;;23.12;65.35
55550;BME280;41397;49.972;18.944;2023-10-13T16:02:58;101727.44;;;23.11;65.44
55550;BME280;41397;49.972;18.944;2023-10-13T16:06:03;101729.54;;;23.09;65.14
55550;BME280;41397;49.972;18.944;2023-10-13T16:09:10;101729.05;;;23.06;65.31
55550;BME280;41397;49.972;18.944;2023-10-13T16:12:24;101726.60;;;23.02;65.33
55550;BME280;41397;49.972;18.944;2023-10-13T16:15:29;101729.77;;;22.99;65.52
55550;BME280;41397;49.972;18.944;2023-10-13T16:18:30;101729.97;;;22.98;65.46
55550;BME280;41397;49.972;18.944;2023-10-13T16:21:34;101728.21;;;22.97;65.73